Terminal Aerodrome Forecast
Issued by NWS

Home | Current Version | Previous Version | Graphics & Text | Print | Product List | Glossary On
Versions: 1 2 3 4 5 6 7 8 9 10 11 12 13 14 15 16 17 18 19 20 21 22
889
FTUS43 KABR 151140
TAFMBG
TAF
KMBG 151140Z 1512/1612 35014G22KT P6SM OVC015
     FM151500 01017G27KT 2SM -SN BLSN OVC015
     FM151700 35018G27KT 1SM -SN BLSN OVC020
     FM152000 34018G25KT 3SM -SN BLSN OVC030
     FM152200 34017G24KT P6SM OVC035
     FM160200 31009KT P6SM SKC=

USA.gov is the U.S. government's official web portal to all federal, state and local government web resources and services.